Time;durP1;ratioP1;P1;durP2;ratioP2;P2;SDS_P1;SDS_P2;PMS_P1;PMS_P2;Temp;Humidity;BMP_temperature;BMP_pressure;BME280_temperature;BME280_humidity;BME280_pressure;Samples;Min_cycle;Max_cycle;Signal;HPM_P1;HPM_P2
2022/08/15 00:00:42;;;;;;;;;;;;;;;;;;5130016;27;20319;-58
2022/08/15 00:03:08;;;;;;;;;;;;;;;;;;5132622;27;19960;-58
2022/08/15 00:05:34;;;;;;;;;;;;;;;;;;5132963;27;19923;-58
2022/08/15 00:08:00;;;;;;;;;;;;;;;;;;5132681;27;19964;-58
2022/08/15 00:10:26;;;;;;;;;;;;;;;;;;5133148;27;19912;-59
2022/08/15 00:12:51;;;;;;;;;;;;;;;;;;5132888;27;19956;-60
2022/08/15 00:15:18;;;;;;;;;;;;;;;;;;5132888;27;19908;-59
2022/08/15 00:17:44;;;;;;;;;;;;;;;;;;5133267;27;20269;-60
2022/08/15 00:20:10;;;;;;;;;;;;;;;;;;5132985;27;19904;-59
2022/08/15 00:22:36;;;;;;;;;;;;;;;;;;5131674;27;20349;-59
2022/08/15 00:25:02;;;;;;;;;;;;;;;;;;5133313;27;19903;-59
2022/08/15 00:27:28;;;;;;;;;;;;;;;;;;5132193;27;19921;-59
2022/08/15 00:29:53;;;;;;;;;;;;;;;;;;5132914;27;20308;-59
2022/08/15 00:32:19;;;;;;;;;;;;;;;;;;5131465;27;19926;-59
2022/08/15 00:34:45;;;;;;;;;;;;;;;;;;5133294;27;19998;-59
2022/08/15 00:37:11;;;;;;;;;;;;;;;;;;5132425;27;20016;-59
2022/08/15 00:39:37;;;;;;;;;;;;;;;;;;5132350;27;19903;-59
2022/08/15 00:42:03;;;;;;;;;;;;;;;;;;5132766;27;19910;-59
2022/08/15 00:44:30;;;;;;;;;;;;;;;;;;5132841;27;20369;-60
2022/08/15 00:46:56;;;;;;;;;;;;;;;;;;5132255;27;20277;-60
2022/08/15 00:49:22;;;;;;;;;;;;;;;;;;5131507;27;19909;-59
2022/08/15 00:51:48;;;;;;;;;;;;;;;;;;5132725;28;19904;-59
2022/08/15 00:54:15;;;;;;;;;;;;;;;;;;5131232;27;19983;-59
2022/08/15 00:56:41;;;;;;;;;;;;;;;;;;5132974;27;20333;-59
2022/08/15 00:59:07;;;;;;;;;;;;;;;;;;5131235;28;20385;-59
2022/08/15 01:01:32;;;;;;;;;;;;;;;;;;5132445;28;20306;-59
2022/08/15 01:03:58;;;;;;;;;;;;;;;;;;5130584;28;19903;-58
2022/08/15 01:06:24;;;;;;;;;;;;;;;;;;5130322;28;19911;-58
2022/08/15 01:08:51;;;;;;;;;;;;;;;;;;5131143;27;19911;-59
2022/08/15 01:11:17;;;;;;;;;;;;;;;;;;5132515;27;20292;-58
2022/08/15 01:13:42;;;;;;;;;;;;;;;;;;5131511;28;19914;-59
2022/08/15 01:16:08;;;;;;;;;;;;;;;;;;5132389;28;20600;-59
2022/08/15 01:18:34;;;;;;;;;;;;;;;;;;5132436;28;19904;-58
2022/08/15 01:21:02;;;;;;;;;;;;;;;;;;5132443;28;19904;-59
2022/08/15 01:23:28;;;;;;;;;;;;;;;;;;5132596;27;20285;-58
2022/08/15 01:25:54;;;;;;;;;;;;;;;;;;5136791;27;19912;-59
2022/08/15 01:28:21;;;;;;;;;;;;;;;;;;5136481;27;20380;-58
2022/08/15 01:30:47;;;;;;;;;;;;;;;;;;5134256;27;19906;-58
2022/08/15 01:33:13;;;;;;;;;;;;;;;;;;5136306;27;19907;-58
2022/08/15 01:35:39;;;;;;;;;;;;;;;;;;5136425;27;19899;-58
2022/08/15 01:38:05;;;;;;;;;;;;;;;;;;5135343;27;19908;-58
2022/08/15 01:40:31;;;;;;;;;;;;;;;;;;5135563;27;19907;-58
2022/08/15 01:42:57;;;;;;;;;;;;;;;;;;5136195;27;20303;-58
2022/08/15 01:45:23;;;;;;;;;;;;;;;;;;5133767;27;19911;-58
2022/08/15 01:47:49;;;;;;;;;;;;;;;;;;5136166;27;19907;-58
2022/08/15 01:50:15;;;;;;;;;;;;;;;;;;5135931;27;19960;-58
2022/08/15 01:52:40;;;;;;;;;;;;;;;;;;5135807;27;20357;-58
2022/08/15 01:55:07;;;;;;;;;;;;;;;;;;5134913;27;19903;-58
2022/08/15 01:57:33;;;;;;;;;;;;;;;;;;5135021;27;20356;-58
2022/08/15 01:59:59;;;;;;;;;;;;;;;;;;5134677;27;19951;-58
2022/08/15 02:02:24;;;;;;;;;;;;;;;;;;5135659;27;20273;-58
2022/08/15 02:04:50;;;;;;;;;;;;;;;;;;5135624;27;19903;-58
2022/08/15 02:07:17;;;;;;;;;;;;;;;;;;5135283;27;19926;-58
2022/08/15 02:09:43;;;;;;;;;;;;;;;;;;5135716;27;19994;-58
2022/08/15 02:12:09;;;;;;;;;;;;;;;;;;5135054;27;19946;-58
2022/08/15 02:14:35;;;;;;;;;;;;;;;;;;5135440;27;19908;-58
2022/08/15 02:17:01;;;;;;;;;;;;;;;;;;5135274;27;19900;-58
2022/08/15 02:19:28;;;;;;;;;;;;;;;;;;5135320;27;19903;-58
2022/08/15 02:21:53;;;;;;;;;;;;;;;;;;5135225;27;20276;-58
2022/08/15 02:24:19;;;;;;;;;;;;;;;;;;5135099;27;19903;-58
2022/08/15 02:26:45;;;;;;;;;;;;;;;;;;5135247;27;20357;-58
2022/08/15 02:29:11;;;;;;;;;;;;;;;;;;5135053;27;20319;-58
2022/08/15 02:31:37;;;;;;;;;;;;;;;;;;5135019;27;19966;-58
2022/08/15 02:34:03;;;;;;;;;;;;;;;;;;5134239;27;19935;-58
2022/08/15 02:36:29;;;;;;;;;;;;;;;;;;5134638;27;20277;-58
2022/08/15 02:38:58;;;;;;;;;;;;;;;;;;5133534;27;20488;-58
2022/08/15 02:41:24;;;;;;;;;;;;;;;;;;5134842;27;20365;-58
2022/08/15 02:43:50;;;;;;;;;;;;;;;;;;5134703;27;19910;-58
2022/08/15 02:46:19;;;;;;;;;;;;;;;;;;5134705;27;19911;-58
2022/08/15 02:48:46;;;;;;;;;;;;;;;;;;5133672;27;19903;-59
2022/08/15 02:51:13;;;;;;;;;;;;;;;;;;5134802;27;19916;-58
2022/08/15 02:53:38;;;;;;;;;;;;;;;;;;5134758;27;19988;-58
2022/08/15 02:56:06;;;;;;;;;;;;;;;;;;5134438;27;20380;-59
2022/08/15 02:58:32;;;;;;;;;;;;;;;;;;5134696;27;19903;-58
2022/08/15 03:00:57;;;;;;;;;;;;;;;;;;5134139;27;19900;-58
2022/08/15 03:03:26;;;;;;;;;;;;;;;;;;5134376;27;19977;-59
2022/08/15 03:05:52;;;;;;;;;;;;;;;;;;5134113;27;19907;-58
2022/08/15 03:08:17;;;;;;;;;;;;;;;;;;5134092;27;20393;-58
2022/08/15 03:10:43;;;;;;;;;;;;;;;;;;5134224;27;20285;-58
2022/08/15 03:13:10;;;;;;;;;;;;;;;;;;5132713;27;19916;-58
2022/08/15 03:15:36;;;;;;;;;;;;;;;;;;5134367;27;19952;-58
2022/08/15 03:18:02;;;;;;;;;;;;;;;;;;5134434;27;19903;-58
2022/08/15 03:20:27;;;;;;;;;;;;;;;;;;5134227;27;19914;-58
2022/08/15 03:22:53;;;;;;;;;;;;;;;;;;5132800;27;20289;-59
2022/08/15 03:25:20;;;;;;;;;;;;;;;;;;5133135;27;19941;-58
2022/08/15 03:27:46;;;;;;;;;;;;;;;;;;5134051;27;19919;-58
2022/08/15 03:30:12;;;;;;;;;;;;;;;;;;5133759;27;20369;-58
2022/08/15 03:32:37;;;;;;;;;;;;;;;;;;5133794;27;19917;-59
2022/08/15 03:35:04;;;;;;;;;;;;;;;;;;5133814;27;19903;-58
2022/08/15 03:37:30;;;;;;;;;;;;;;;;;;5133948;27;19910;-58
2022/08/15 03:39:56;;;;;;;;;;;;;;;;;;5133787;27;20001;-58
2022/08/15 03:42:25;;;;;;;;;;;;;;;;;;5133631;27;20218;-59
2022/08/15 03:44:51;;;;;;;;;;;;;;;;;;5133530;27;19907;-58
2022/08/15 03:47:17;;;;;;;;;;;;;;;;;;5131821;27;20434;-59
2022/08/15 03:49:42;;;;;;;;;;;;;;;;;;5133754;27;19950;-58
2022/08/15 03:52:08;;;;;;;;;;;;;;;;;;5133439;27;20094;-58
2022/08/15 03:54:35;;;;;;;;;;;;;;;;;;5133768;27;19949;-59
2022/08/15 03:57:01;;;;;;;;;;;;;;;;;;5133386;27;20353;-58
2022/08/15 03:59:27;;;;;;;;;;;;;;;;;;5133307;27;19987;-58
2022/08/15 04:01:52;;;;;;;;;;;;;;;;;;5133140;27;20377;-58
2022/08/15 04:04:18;;;;;;;;;;;;;;;;;;5133127;27;19903;-58
2022/08/15 04:06:44;;;;;;;;;;;;;;;;;;5133231;27;19933;-58
2022/08/15 04:09:10;;;;;;;;;;;;;;;;;;5132766;27;19942;-58
2022/08/15 04:11:36;;;;;;;;;;;;;;;;;;5132991;27;20285;-58
2022/08/15 04:14:02;;;;;;;;;;;;;;;;;;5133115;27;19956;-58
2022/08/15 04:16:28;;;;;;;;;;;;;;;;;;5133178;27;20277;-58
2022/08/15 04:18:53;;;;;;;;;;;;;;;;;;5132930;27;19911;-58
2022/08/15 04:21:19;;;;;;;;;;;;;;;;;;5132803;27;20381;-58
2022/08/15 04:23:45;;;;;;;;;;;;;;;;;;5133156;27;19930;-58
2022/08/15 04:26:11;;;;;;;;;;;;;;;;;;5132708;27;20361;-58
2022/08/15 04:28:37;;;;;;;;;;;;;;;;;;5132953;27;20269;-58
2022/08/15 04:31:03;;;;;;;;;;;;;;;;;;5132780;27;19915;-58
2022/08/15 04:33:29;;;;;;;;;;;;;;;;;;5133079;27;19982;-58
2022/08/15 04:35:55;;;;;;;;;;;;;;;;;;5132762;27;19994;-58
2022/08/15 04:38:20;;;;;;;;;;;;;;;;;;5132755;27;19910;-58
2022/08/15 04:40:46;;;;;;;;;;;;;;;;;;5132809;27;19903;-58
2022/08/15 04:43:12;;;;;;;;;;;;;;;;;;5132693;27;20011;-58
2022/08/15 04:45:39;;;;;;;;;;;;;;;;;;5132380;27;19904;-58
2022/08/15 04:48:06;;;;;;;;;;;;;;;;;;5132598;27;19930;-58
2022/08/15 04:50:32;;;;;;;;;;;;;;;;;;5132842;27;19904;-59
2022/08/15 04:52:58;;;;;;;;;;;;;;;;;;5132149;28;19903;-58
2022/08/15 04:55:24;;;;;;;;;;;;;;;;;;5131799;28;20334;-58
2022/08/15 04:57:50;;;;;;;;;;;;;;;;;;5131347;27;19907;-58
2022/08/15 05:00:16;;;;;;;;;;;;;;;;;;5136826;27;19952;-59
2022/08/15 05:02:42;;;;;;;;;;;;;;;;;;5136765;27;20397;-59
2022/08/15 05:05:08;;;;;;;;;;;;;;;;;;5136706;27;19943;-59
2022/08/15 05:07:34;;;;;;;;;;;;;;;;;;5135975;27;19911;-59
2022/08/15 05:10:00;;;;;;;;;;;;;;;;;;5136393;27;19899;-58
2022/08/15 05:12:26;;;;;;;;;;;;;;;;;;5136810;27;19907;-58
2022/08/15 05:14:52;;;;;;;;;;;;;;;;;;5136442;27;20238;-58
2022/08/15 05:17:18;;;;;;;;;;;;;;;;;;5136976;27;19947;-58
2022/08/15 05:19:44;;;;;;;;;;;;;;;;;;5134561;27;19900;-58
2022/08/15 05:22:10;;;;;;;;;;;;;;;;;;5136664;27;19959;-58
2022/08/15 05:24:35;;;;;;;;;;;;;;;;;;5134261;27;19950;-58
2022/08/15 05:27:01;;;;;;;;;;;;;;;;;;5136464;27;19915;-58
2022/08/15 05:29:27;;;;;;;;;;;;;;;;;;5134804;27;19903;-57
2022/08/15 05:31:53;;;;;;;;;;;;;;;;;;5136107;27;20350;-57
2022/08/15 05:34:19;;;;;;;;;;;;;;;;;;5134188;27;19949;-56
2022/08/15 05:36:45;;;;;;;;;;;;;;;;;;5136076;27;19903;-57
2022/08/15 05:39:11;;;;;;;;;;;;;;;;;;5135935;27;20299;-57
2022/08/15 05:41:37;;;;;;;;;;;;;;;;;;5135915;27;19911;-57
2022/08/15 05:44:02;;;;;;;;;;;;;;;;;;5135902;27;19942;-57
2022/08/15 05:46:28;;;;;;;;;;;;;;;;;;5135692;27;19914;-58
2022/08/15 05:48:54;;;;;;;;;;;;;;;;;;5135699;27;19908;-57
2022/08/15 05:51:20;;;;;;;;;;;;;;;;;;5135754;27;20430;-57
2022/08/15 05:53:46;;;;;;;;;;;;;;;;;;5135893;27;19911;-58
2022/08/15 05:56:12;;;;;;;;;;;;;;;;;;5135672;27;19910;-57
2022/08/15 05:58:38;;;;;;;;;;;;;;;;;;5135689;27;19947;-57
2022/08/15 06:01:03;;;;;;;;;;;;;;;;;;5135531;27;19911;-57
2022/08/15 06:03:29;;;;;;;;;;;;;;;;;;5135177;27;19978;-57
2022/08/15 06:05:55;;;;;;;;;;;;;;;;;;5135126;27;20357;-57
2022/08/15 06:08:21;;;;;;;;;;;;;;;;;;5134107;27;19911;-57
2022/08/15 06:10:47;;;;;;;;;;;;;;;;;;5135384;27;19956;-57
2022/08/15 06:13:13;;;;;;;;;;;;;;;;;;5135313;27;19914;-58
2022/08/15 06:15:38;;;;;;;;;;;;;;;;;;5135119;27;19946;-58
2022/08/15 06:18:04;;;;;;;;;;;;;;;;;;5134993;27;19903;-59
2022/08/15 06:20:31;;;;;;;;;;;;;;;;;;5135208;27;20276;-58
2022/08/15 06:22:57;;;;;;;;;;;;;;;;;;5135414;27;19998;-58
2022/08/15 06:25:22;;;;;;;;;;;;;;;;;;5133255;27;19970;-58
2022/08/15 06:27:48;;;;;;;;;;;;;;;;;;5133714;27;19911;-58
2022/08/15 06:30:14;;;;;;;;;;;;;;;;;;5133858;27;19910;-57
2022/08/15 06:32:40;;;;;;;;;;;;;;;;;;5135375;27;19904;-58
2022/08/15 06:35:06;;;;;;;;;;;;;;;;;;5134962;27;20360;-58
2022/08/15 06:37:32;;;;;;;;;;;;;;;;;;5135067;27;19989;-59
2022/08/15 06:39:58;;;;;;;;;;;;;;;;;;5135542;27;19911;-58
2022/08/15 06:42:23;;;;;;;;;;;;;;;;;;5135382;27;19907;-58
2022/08/15 06:44:49;;;;;;;;;;;;;;;;;;5135338;27;19904;-58
2022/08/15 06:47:15;;;;;;;;;;;;;;;;;;5135183;27;20000;-59
2022/08/15 06:49:41;;;;;;;;;;;;;;;;;;5135268;27;19903;-59
2022/08/15 06:52:07;;;;;;;;;;;;;;;;;;5135203;27;20254;-59
2022/08/15 06:54:35;;;;;;;;;;;;;;;;;;5135316;27;19958;-60
2022/08/15 06:57:00;;;;;;;;;;;;;;;;;;5135228;27;19904;-59
2022/08/15 06:59:26;;;;;;;;;;;;;;;;;;5135146;27;19910;-59
2022/08/15 07:01:52;;;;;;;;;;;;;;;;;;5135108;27;20295;-59
2022/08/15 07:04:18;;;;;;;;;;;;;;;;;;5134854;27;19908;-58
2022/08/15 07:06:44;;;;;;;;;;;;;;;;;;5135181;27;19907;-59
2022/08/15 07:09:10;;;;;;;;;;;;;;;;;;5134642;27;20278;-59
2022/08/15 07:11:40;;;;;;;;;;;;;;;;;;5134842;27;19907;-58
2022/08/15 07:14:06;;;;;;;;;;;;;;;;;;5134547;27;20336;-58
2022/08/15 07:16:32;;;;;;;;;;;;;;;;;;5134677;27;20375;-58
2022/08/15 07:18:58;;;;;;;;;;;;;;;;;;5134611;27;19903;-59
2022/08/15 07:21:25;;;;;;;;;;;;;;;;;;5133881;27;19926;-59
2022/08/15 07:23:51;;;;;;;;;;;;;;;;;;5134671;27;19910;-59
2022/08/15 07:26:18;;;;;;;;;;;;;;;;;;5134351;27;19956;-59
2022/08/15 07:28:44;;;;;;;;;;;;;;;;;;5134729;27;19914;-57
2022/08/15 07:31:10;;;;;;;;;;;;;;;;;;5134254;27;19899;-58
2022/08/15 07:33:36;;;;;;;;;;;;;;;;;;5134374;27;19946;-59
2022/08/15 07:36:03;;;;;;;;;;;;;;;;;;5134352;27;20349;-58
2022/08/15 07:38:29;;;;;;;;;;;;;;;;;;5134389;27;19903;-58
2022/08/15 07:40:55;;;;;;;;;;;;;;;;;;5133950;27;19994;-59
2022/08/15 07:43:25;;;;;;;;;;;;;;;;;;5133830;27;19910;-58
2022/08/15 07:45:52;;;;;;;;;;;;;;;;;;5133771;27;19899;-59
2022/08/15 07:48:17;;;;;;;;;;;;;;;;;;5134126;27;19910;-59
2022/08/15 07:50:43;;;;;;;;;;;;;;;;;;5134056;27;19911;-59
2022/08/15 07:53:10;;;;;;;;;;;;;;;;;;5133901;27;19903;-58
2022/08/15 07:55:36;;;;;;;;;;;;;;;;;;5134009;27;20371;-58
2022/08/15 07:58:02;;;;;;;;;;;;;;;;;;5134063;27;19934;-58
2022/08/15 08:00:28;;;;;;;;;;;;;;;;;;5133759;27;20315;-59
2022/08/15 08:02:53;;;;;;;;;;;;;;;;;;5133371;27;19904;-58
2022/08/15 08:05:21;;;;;;;;;;;;;;;;;;5131240;27;20361;-60
2022/08/15 08:07:47;;;;;;;;;;;;;;;;;;5132739;27;20376;-58
2022/08/15 08:10:12;;;;;;;;;;;;;;;;;;5133067;27;19899;-59
2022/08/15 08:12:38;;;;;;;;;;;;;;;;;;5133175;27;19911;-60
2022/08/15 08:15:04;;;;;;;;;;;;;;;;;;5132991;27;19900;-59
2022/08/15 08:17:30;;;;;;;;;;;;;;;;;;5131271;27;19926;-61
2022/08/15 08:19:56;;;;;;;;;;;;;;;;;;5132706;27;19907;-59
2022/08/15 08:22:23;;;;;;;;;;;;;;;;;;5132202;27;19972;-60
2022/08/15 08:24:49;;;;;;;;;;;;;;;;;;5132753;27;19910;-61
2022/08/15 08:27:15;;;;;;;;;;;;;;;;;;5133072;27;20293;-60
2022/08/15 08:29:41;;;;;;;;;;;;;;;;;;5133185;27;19903;-60
2022/08/15 08:32:07;;;;;;;;;;;;;;;;;;5132833;27;19964;-60
2022/08/15 08:34:33;;;;;;;;;;;;;;;;;;5132975;27;19946;-61
2022/08/15 08:36:58;;;;;;;;;;;;;;;;;;5131219;27;19934;-60
2022/08/15 08:39:24;;;;;;;;;;;;;;;;;;5133059;27;19935;-61
2022/08/15 08:41:50;;;;;;;;;;;;;;;;;;5132885;27;19990;-60
2022/08/15 08:44:16;;;;;;;;;;;;;;;;;;5132726;27;20250;-60
2022/08/15 08:46:42;;;;;;;;;;;;;;;;;;5133470;27;19907;-60
2022/08/15 08:49:08;;;;;;;;;;;;;;;;;;5132684;27;19910;-60
2022/08/15 08:51:34;;;;;;;;;;;;;;;;;;5132228;27;19903;-61
2022/08/15 08:54:01;;;;;;;;;;;;;;;;;;5132743;28;20324;-60
2022/08/15 08:56:27;;;;;;;;;;;;;;;;;;5132765;27;19907;-61
2022/08/15 08:58:52;;;;;;;;;;;;;;;;;;5132608;28;19910;-60
2022/08/15 09:01:18;;;;;;;;;;;;;;;;;;5132605;28;19903;-61
2022/08/15 09:03:46;;;;;;;;;;;;;;;;;;5132745;28;19904;-61
2022/08/15 09:06:12;;;;;;;;;;;;;;;;;;5132544;27;19913;-61
2022/08/15 09:08:38;;;;;;;;;;;;;;;;;;5132317;28;20002;-61
2022/08/15 09:11:04;;;;;;;;;;;;;;;;;;5132517;28;19907;-61
2022/08/15 09:13:33;;;;;;;;;;;;;;;;;;5132685;27;19907;-61
2022/08/15 09:16:02;;;;;;;;;;;;;;;;;;5132808;28;20416;-60
2022/08/15 09:18:28;;;;;;;;;;;;;;;;;;5131095;28;19965;-60
2022/08/15 09:20:53;;;;;;;;;;;;;;;;;;5132252;28;20325;-60
2022/08/15 09:23:20;;;;;;;;;;;;;;;;;;5132253;28;19903;-61
2022/08/15 09:25:46;;;;;;;;;;;;;;;;;;5132699;27;19908;-61
2022/08/15 09:28:12;;;;;;;;;;;;;;;;;;5132286;28;20364;-60
2022/08/15 09:30:38;;;;;;;;;;;;;;;;;;5132249;28;19903;-61
2022/08/15 09:33:04;;;;;;;;;;;;;;;;;;5132047;28;20020;-60
2022/08/15 09:35:30;;;;;;;;;;;;;;;;;;5130898;28;19903;-61
2022/08/15 09:37:56;;;;;;;;;;;;;;;;;;5131510;28;19907;-58
2022/08/15 09:40:21;;;;;;;;;;;;;;;;;;5132078;28;19908;-60
2022/08/15 09:42:47;;;;;;;;;;;;;;;;;;5132452;28;19903;-62
2022/08/15 09:45:13;;;;;;;;;;;;;;;;;;5135116;27;20246;-63
2022/08/15 09:47:40;;;;;;;;;;;;;;;;;;5135233;27;19914;-58
2022/08/15 09:50:05;;;;;;;;;;;;;;;;;;5135790;27;20353;-59
2022/08/15 09:52:34;;;;;;;;;;;;;;;;;;5134470;27;19911;-58
2022/08/15 09:55:00;;;;;;;;;;;;;;;;;;5135442;27;19903;-58
2022/08/15 09:57:26;;;;;;;;;;;;;;;;;;5135968;27;20326;-59
2022/08/15 09:59:51;;;;;;;;;;;;;;;;;;5135212;27;19946;-59
2022/08/15 10:02:19;;;;;;;;;;;;;;;;;;5135720;27;19908;-59
2022/08/15 10:04:45;;;;;;;;;;;;;;;;;;5135665;27;19903;-58
2022/08/15 10:07:11;;;;;;;;;;;;;;;;;;5134756;27;19914;-58
2022/08/15 10:09:37;;;;;;;;;;;;;;;;;;5125069;27;19931;-59
2022/08/15 10:12:06;;;;;;;;;;;;;;;;;;5134534;27;19903;-59
2022/08/15 10:14:32;;;;;;;;;;;;;;;;;;5134679;27;20006;-59
2022/08/15 10:17:04;;;;;;;;;;;;;;;;;;5131256;27;19982;-60
2022/08/15 10:19:30;;;;;;;;;;;;;;;;;;5134194;27;19903;-59
2022/08/15 10:21:58;;;;;;;;;;;;;;;;;;5135190;27;20289;-60
2022/08/15 10:24:24;;;;;;;;;;;;;;;;;;5135493;27;20002;-60
2022/08/15 10:26:51;;;;;;;;;;;;;;;;;;5135161;27;19998;-60
2022/08/15 10:29:17;;;;;;;;;;;;;;;;;;5135044;27;19907;-60
2022/08/15 10:31:43;;;;;;;;;;;;;;;;;;5134537;27;20323;-60
2022/08/15 10:34:09;;;;;;;;;;;;;;;;;;5135557;27;19910;-60
2022/08/15 10:36:35;;;;;;;;;;;;;;;;;;5135600;27;20277;-60
2022/08/15 10:39:02;;;;;;;;;;;;;;;;;;5135738;27;19926;-60
2022/08/15 10:41:28;;;;;;;;;;;;;;;;;;5135480;27;20369;-60
2022/08/15 10:43:54;;;;;;;;;;;;;;;;;;5135339;27;19929;-59
2022/08/15 10:46:20;;;;;;;;;;;;;;;;;;5135202;27;19911;-60
2022/08/15 10:48:46;;;;;;;;;;;;;;;;;;5135467;27;19915;-60
2022/08/15 10:51:13;;;;;;;;;;;;;;;;;;5135197;27;20006;-60
2022/08/15 10:53:39;;;;;;;;;;;;;;;;;;5135394;27;19917;-61
2022/08/15 10:56:05;;;;;;;;;;;;;;;;;;5133959;27;19904;-60
2022/08/15 10:58:32;;;;;;;;;;;;;;;;;;5135181;27;20419;-60
2022/08/15 11:01:04;;;;;;;;;;;;;;;;;;5132767;27;19904;-60
2022/08/15 11:03:34;;;;;;;;;;;;;;;;;;5134812;27;19911;-57
2022/08/15 11:06:00;;;;;;;;;;;;;;;;;;5134785;27;19907;-57
2022/08/15 11:08:26;;;;;;;;;;;;;;;;;;5134425;27;19980;-56
2022/08/15 11:10:52;;;;;;;;;;;;;;;;;;5134312;27;20331;-57
2022/08/15 11:13:18;;;;;;;;;;;;;;;;;;5134281;27;19938;-58
2022/08/15 11:15:44;;;;;;;;;;;;;;;;;;5133644;27;19965;-57
2022/08/15 11:18:10;;;;;;;;;;;;;;;;;;5133424;27;19990;-56
2022/08/15 11:20:36;;;;;;;;;;;;;;;;;;5134069;27;19990;-57
2022/08/15 11:23:04;;;;;;;;;;;;;;;;;;5134201;27;20474;-57
2022/08/15 11:25:29;;;;;;;;;;;;;;;;;;5134340;27;19938;-57
2022/08/15 11:27:55;;;;;;;;;;;;;;;;;;5133384;27;19954;-57
2022/08/15 11:30:21;;;;;;;;;;;;;;;;;;5133918;27;19904;-57
2022/08/15 11:32:47;;;;;;;;;;;;;;;;;;5133954;27;20373;-57
2022/08/15 11:35:13;;;;;;;;;;;;;;;;;;5134044;27;20294;-57
2022/08/15 11:37:39;;;;;;;;;;;;;;;;;;5133211;27;19988;-58
2022/08/15 11:40:05;;;;;;;;;;;;;;;;;;5133960;27;19907;-57
2022/08/15 11:42:31;;;;;;;;;;;;;;;;;;5134067;27;19903;-57
2022/08/15 11:44:56;;;;;;;;;;;;;;;;;;5133914;27;19933;-58
2022/08/15 11:47:22;;;;;;;;;;;;;;;;;;5133765;27;19930;-58
2022/08/15 11:49:48;;;;;;;;;;;;;;;;;;5133793;27;19904;-58
2022/08/15 11:52:14;;;;;;;;;;;;;;;;;;5133906;27;19991;-58
2022/08/15 11:54:40;;;;;;;;;;;;;;;;;;5133724;27;20390;-57
2022/08/15 11:57:06;;;;;;;;;;;;;;;;;;5133703;27;19907;-58
2022/08/15 11:59:32;;;;;;;;;;;;;;;;;;5133627;27;19910;-58
2022/08/15 12:01:57;;;;;;;;;;;;;;;;;;5133646;27;19935;-58
2022/08/15 12:04:23;;;;;;;;;;;;;;;;;;5133446;27;20357;-58
2022/08/15 12:06:49;;;;;;;;;;;;;;;;;;5133142;27;19907;-57
2022/08/15 12:09:15;;;;;;;;;;;;;;;;;;5133378;27;19923;-58
2022/08/15 12:11:41;;;;;;;;;;;;;;;;;;5133506;27;19994;-56
2022/08/15 12:14:07;;;;;;;;;;;;;;;;;;5133061;27;19904;-56
2022/08/15 12:16:33;;;;;;;;;;;;;;;;;;5133362;27;19971;-56
2022/08/15 12:19:00;;;;;;;;;;;;;;;;;;5133470;27;19911;-57
2022/08/15 12:21:27;;;;;;;;;;;;;;;;;;5133405;27;19919;-56
2022/08/15 12:23:54;;;;;;;;;;;;;;;;;;5133357;27;19984;-56
2022/08/15 12:26:20;;;;;;;;;;;;;;;;;;5133071;27;19959;-56
2022/08/15 12:28:46;;;;;;;;;;;;;;;;;;5131236;27;20001;-57
2022/08/15 12:31:12;;;;;;;;;;;;;;;;;;5132490;27;19899;-58
2022/08/15 12:33:38;;;;;;;;;;;;;;;;;;5133042;27;20037;-57
2022/08/15 12:36:04;;;;;;;;;;;;;;;;;;5132810;27;19965;-57
2022/08/15 12:38:31;;;;;;;;;;;;;;;;;;5132837;27;19903;-58
2022/08/15 12:40:57;;;;;;;;;;;;;;;;;;5132798;27;19903;-57
2022/08/15 12:43:23;;;;;;;;;;;;;;;;;;5131360;27;19957;-58
2022/08/15 12:45:49;;;;;;;;;;;;;;;;;;5132651;27;19900;-57
2022/08/15 12:48:14;;;;;;;;;;;;;;;;;;5132492;27;19908;-55
2022/08/15 12:50:40;;;;;;;;;;;;;;;;;;5132562;27;19926;-57
2022/08/15 12:53:06;;;;;;;;;;;;;;;;;;5132701;28;19941;-58
2022/08/15 12:55:32;;;;;;;;;;;;;;;;;;5132756;28;19907;-60
2022/08/15 12:57:58;;;;;;;;;;;;;;;;;;5130559;28;19948;-59
2022/08/15 13:00:26;;;;;;;;;;;;;;;;;;5129890;28;20214;-57
2022/08/15 13:02:52;;;;;;;;;;;;;;;;;;5132557;27;19963;-56
2022/08/15 13:05:17;;;;;;;;;;;;;;;;;;5132126;28;19990;-56
2022/08/15 13:07:43;;;;;;;;;;;;;;;;;;5131533;28;19919;-57
2022/08/15 13:10:10;;;;;;;;;;;;;;;;;;5132280;28;19899;-57
2022/08/15 13:12:36;;;;;;;;;;;;;;;;;;5132345;27;19926;-56
2022/08/15 13:15:02;;;;;;;;;;;;;;;;;;5132356;28;20362;-56
2022/08/15 13:17:27;;;;;;;;;;;;;;;;;;5131474;28;20352;-56
2022/08/15 13:25:23;;;;;;;;;;;;;;;;;;5136402;27;20110;-56
2022/08/15 13:27:49;;;;;;;;;;;;;;;;;;5135679;27;20270;-56
2022/08/15 13:30:14;;;;;;;;;;;;;;;;;;5134411;27;20380;-56
2022/08/15 13:32:40;;;;;;;;;;;;;;;;;;5136150;27;19903;-56
2022/08/15 13:35:06;;;;;;;;;;;;;;;;;;5136230;27;19913;-57
2022/08/15 13:37:32;;;;;;;;;;;;;;;;;;5136176;27;20302;-56
2022/08/15 13:39:58;;;;;;;;;;;;;;;;;;5136157;27;20269;-56
2022/08/15 13:42:24;;;;;;;;;;;;;;;;;;5134629;27;19903;-56
2022/08/15 13:44:51;;;;;;;;;;;;;;;;;;5136552;27;19911;-56
2022/08/15 13:47:17;;;;;;;;;;;;;;;;;;5135188;27;19930;-56
2022/08/15 13:49:43;;;;;;;;;;;;;;;;;;5136102;27;20381;-56
2022/08/15 13:52:10;;;;;;;;;;;;;;;;;;5135213;27;19904;-56
2022/08/15 13:54:35;;;;;;;;;;;;;;;;;;5130463;27;19949;-58
2022/08/15 13:57:01;;;;;;;;;;;;;;;;;;5133385;27;19935;-57
2022/08/15 13:59:30;;;;;;;;;;;;;;;;;;5134132;27;19910;-57
2022/08/15 14:01:56;;;;;;;;;;;;;;;;;;5135798;27;20397;-56
2022/08/15 14:04:22;;;;;;;;;;;;;;;;;;5135535;27;19907;-56
2022/08/15 14:06:48;;;;;;;;;;;;;;;;;;5122472;27;20007;-57
2022/08/15 14:09:14;;;;;;;;;;;;;;;;;;5113417;28;19979;-57
2022/08/15 14:11:43;;;;;;;;;;;;;;;;;;5115100;28;20342;-58
2022/08/15 14:14:10;;;;;;;;;;;;;;;;;;5114454;28;19995;-59
2022/08/15 14:16:36;;;;;;;;;;;;;;;;;;5114903;28;19910;-59
2022/08/15 14:19:02;;;;;;;;;;;;;;;;;;5114736;28;19904;-60
2022/08/15 14:21:28;;;;;;;;;;;;;;;;;;5114708;28;19986;-59
2022/08/15 14:23:55;;;;;;;;;;;;;;;;;;5114229;28;19904;-59
2022/08/15 14:26:23;;;;;;;;;;;;;;;;;;5114625;28;19907;-59
2022/08/15 14:28:50;;;;;;;;;;;;;;;;;;5114506;28;19916;-60
2022/08/15 14:31:16;;;;;;;;;;;;;;;;;;5114271;28;19899;-59
2022/08/15 14:33:42;;;;;;;;;;;;;;;;;;5113395;28;20239;-60
2022/08/15 14:36:08;;;;;;;;;;;;;;;;;;5113857;28;19900;-59
2022/08/15 14:38:34;;;;;;;;;;;;;;;;;;5112429;28;19907;-59
2022/08/15 14:41:01;;;;;;;;;;;;;;;;;;5112717;28;20243;-59
2022/08/15 14:43:27;;;;;;;;;;;;;;;;;;5113886;28;19904;-59
2022/08/15 14:45:54;;;;;;;;;;;;;;;;;;5111741;28;19900;-58
2022/08/15 14:48:21;;;;;;;;;;;;;;;;;;5112426;28;19908;-58
2022/08/15 14:50:47;;;;;;;;;;;;;;;;;;5114209;28;19907;-58
2022/08/15 14:53:12;;;;;;;;;;;;;;;;;;5114381;28;19998;-58
2022/08/15 14:55:39;;;;;;;;;;;;;;;;;;5113848;28;19915;-58
2022/08/15 14:58:06;;;;;;;;;;;;;;;;;;5113836;28;19904;-58
2022/08/15 15:00:32;;;;;;;;;;;;;;;;;;5114075;28;19990;-58
2022/08/15 15:02:58;;;;;;;;;;;;;;;;;;5113082;28;20305;-59
2022/08/15 15:05:23;;;;;;;;;;;;;;;;;;5112956;28;19946;-58
2022/08/15 15:07:53;;;;;;;;;;;;;;;;;;5113979;28;20335;-59
2022/08/15 15:10:20;;;;;;;;;;;;;;;;;;5113957;28;19907;-59
2022/08/15 15:12:46;;;;;;;;;;;;;;;;;;5114171;28;19903;-59
2022/08/15 15:15:13;;;;;;;;;;;;;;;;;;5113954;28;19900;-60
2022/08/15 15:17:39;;;;;;;;;;;;;;;;;;5113745;28;20525;-59
2022/08/15 15:20:06;;;;;;;;;;;;;;;;;;5113850;28;19964;-59
2022/08/15 15:22:31;;;;;;;;;;;;;;;;;;5113187;28;20257;-59
2022/08/15 15:24:57;;;;;;;;;;;;;;;;;;5120048;27;19903;-59
2022/08/15 15:27:23;;;;;;;;;;;;;;;;;;5133817;27;20425;-60
2022/08/15 15:29:49;;;;;;;;;;;;;;;;;;5134227;27;20269;-59
2022/08/15 15:32:15;;;;;;;;;;;;;;;;;;5134199;27;19903;-59
2022/08/15 15:34:41;;;;;;;;;;;;;;;;;;5134224;27;20273;-59
2022/08/15 15:37:06;;;;;;;;;;;;;;;;;;5132930;27;19952;-60
2022/08/15 15:39:32;;;;;;;;;;;;;;;;;;5133676;27;20137;-59
2022/08/15 15:41:59;;;;;;;;;;;;;;;;;;5131737;27;19905;-59
2022/08/15 15:44:25;;;;;;;;;;;;;;;;;;5134104;27;20385;-58
2022/08/15 15:46:51;;;;;;;;;;;;;;;;;;5132247;27;20404;-58
2022/08/15 15:49:17;;;;;;;;;;;;;;;;;;5133895;27;19907;-58
2022/08/15 15:51:44;;;;;;;6.97;4.40;;;;;;;;;;5131904;27;20455;-58
2022/08/15 15:54:10;;;;;;;4.18;3.78;;;;;;;;;;5131031;27;20403;-58
2022/08/15 15:56:37;;;;;;;8.20;4.20;;;;;;;;;;5132038;27;20398;-58
2022/08/15 15:59:03;;;;;;;6.30;4.00;;;;;;;;;;5131752;27;20391;-58
2022/08/15 16:01:32;;;;;;;5.00;3.90;;;;;;;;;;5131822;27;20924;-58
2022/08/15 16:04:00;;;;;;;4.53;4.13;;;;;;;;;;5131659;27;20428;-58
2022/08/15 16:06:26;;;;;;;4.68;4.15;;;;;;;;;;5131709;27;20411;-58
2022/08/15 16:08:53;;;;;;;4.97;4.53;;;;;;;;;;5130168;27;20402;-58
2022/08/15 16:11:21;;;;;;;5.60;4.15;;;;;;;;;;5131859;27;20748;-58
2022/08/15 16:13:52;;;;;;;5.00;4.47;;;;;;;;;;5129817;27;20459;-58
2022/08/15 16:16:21;;;;;;;7.57;4.77;;;;;;;;;;5131693;27;20391;-58
2022/08/15 16:18:50;;;;;;;5.55;4.68;;;;;;;;;;5131770;27;20756;-58
2022/08/15 16:21:18;;;;;;;4.88;4.28;;;;;;;;;;5131525;27;20477;-58
2022/08/15 16:23:49;;;;;;;4.70;4.30;;;;;;;;;;5131245;27;20413;-58
2022/08/15 16:26:23;;;;;;;4.40;4.00;;;;;;;;;;5131200;27;20473;-58
2022/08/15 16:28:52;;;;;;;4.95;4.50;;;;;;;;;;5131208;27;20942;-58
2022/08/15 16:31:20;;;;;;;4.75;4.20;;;;;;;;;;5130848;27;20949;-59
2022/08/15 16:33:49;;;;;;;5.07;4.30;;;;;;;;;;5131362;27;20399;-58
2022/08/15 16:36:19;;;;;;;6.13;4.60;;;;;;;;;;5131211;27;20391;-58